sensor_id;sensor_type;location;lat;lon;timestamp;pressure;altitude;pressure_sealevel;temperature;humidity
37142;BME280;23041;49.816;20.092;2022-08-11T00:01:22;98434.89;;;15.29;61.04
37142;BME280;23041;49.816;20.092;2022-08-11T00:03:58;98440.36;;;15.12;61.09
37142;BME280;23041;49.816;20.092;2022-08-11T00:06:34;98439.30;;;15.01;61.18
37142;BME280;23041;49.816;20.092;2022-08-11T00:09:05;98435.73;;;14.88;61.28
37142;BME280;23041;49.816;20.092;2022-08-11T00:11:45;98424.42;;;14.70;61.43
37142;BME280;23041;49.816;20.092;2022-08-11T00:14:26;98436.13;;;14.74;61.60
37142;BME280;23041;49.816;20.092;2022-08-11T00:17:04;98438.41;;;14.84;61.73
37142;BME280;23041;49.816;20.092;2022-08-11T00:19:34;98442.30;;;14.86;61.81
37142;BME280;23041;49.816;20.092;2022-08-11T00:22:05;98439.48;;;14.82;61.86
37142;BME280;23041;49.816;20.092;2022-08-11T00:24:40;98435.64;;;14.71;61.91
37142;BME280;23041;49.816;20.092;2022-08-11T00:27:06;98429.97;;;14.62;61.96
37142;BME280;23041;49.816;20.092;2022-08-11T00:29:33;98426.67;;;14.46;61.97
37142;BME280;23041;49.816;20.092;2022-08-11T00:32:02;98435.32;;;14.40;62.03
37142;BME280;23041;49.816;20.092;2022-08-11T00:34:31;98437.02;;;14.42;62.14
37142;BME280;23041;49.816;20.092;2022-08-11T00:37:05;98438.78;;;14.20;62.14
37142;BME280;23041;49.816;20.092;2022-08-11T00:39:35;98438.78;;;14.20;62.14
37142;BME280;23041;49.816;20.092;2022-08-11T00:45:34;98434.15;;;14.01;62.46
37142;BME280;23041;49.816;20.092;2022-08-11T00:47:57;98438.39;;;14.05;62.56
37142;BME280;23041;49.816;20.092;2022-08-11T00:50:48;98443.45;;;14.07;62.63
37142;BME280;23041;49.816;20.092;2022-08-11T00:53:36;98440.27;;;14.08;62.70
37142;BME280;23041;49.816;20.092;2022-08-11T01:11:12;98421.86;;;13.48;63.10
37142;BME280;23041;49.816;20.092;2022-08-11T01:23:13;98430.41;;;13.46;63.40
37142;BME280;23041;49.816;20.092;2022-08-11T01:33:06;98431.59;;;13.37;63.69
37142;BME280;23041;49.816;20.092;2022-08-11T01:35:26;98429.59;;;13.21;63.82
37142;BME280;23041;49.816;20.092;2022-08-11T01:39:11;98427.02;;;13.22;63.95
37142;BME280;23041;49.816;20.092;2022-08-11T01:44:03;98429.77;;;13.30;64.08
37142;BME280;23041;49.816;20.092;2022-08-11T01:50:15;98420.66;;;13.33;64.19
37142;BME280;23041;49.816;20.092;2022-08-11T02:04:02;98426.66;;;12.92;64.32
37142;BME280;23041;49.816;20.092;2022-08-11T02:10:13;98422.41;;;12.88;64.53
37142;BME280;23041;49.816;20.092;2022-08-11T02:13:09;98433.70;;;12.93;64.60
37142;BME280;23041;49.816;20.092;2022-08-11T02:15:49;98430.95;;;12.93;64.65
37142;BME280;23041;49.816;20.092;2022-08-11T02:18:37;98433.28;;;12.87;64.71
37142;BME280;23041;49.816;20.092;2022-08-11T02:21:45;98432.23;;;12.81;64.80
37142;BME280;23041;49.816;20.092;2022-08-11T02:24:56;98429.47;;;12.81;64.85
37142;BME280;23041;49.816;20.092;2022-08-11T02:27:21;98427.88;;;12.72;64.92
37142;BME280;23041;49.816;20.092;2022-08-11T02:29:58;98430.85;;;12.61;64.95
37142;BME280;23041;49.816;20.092;2022-08-11T02:38:42;98422.27;;;12.67;65.25
37142;BME280;23041;49.816;20.092;2022-08-11T02:41:42;98420.07;;;12.58;65.32
37142;BME280;23041;49.816;20.092;2022-08-11T02:50:22;98424.38;;;12.79;65.62
37142;BME280;23041;49.816;20.092;2022-08-11T02:52:57;98422.41;;;12.88;65.72
37142;BME280;23041;49.816;20.092;2022-08-11T03:10:40;98427.44;;;12.93;66.10
37142;BME280;23041;49.816;20.092;2022-08-11T03:16:55;98426.66;;;12.92;66.22
37142;BME280;23041;49.816;20.092;2022-08-11T03:22:20;98430.02;;;13.00;66.33
37142;BME280;23041;49.816;20.092;2022-08-11T03:25:05;98425.16;;;12.88;66.39
37142;BME280;23041;49.816;20.092;2022-08-11T03:27:53;98430.34;;;12.94;66.46
37142;BME280;23041;49.816;20.092;2022-08-11T03:33:27;98435.68;;;13.13;66.54
37142;BME280;23041;49.816;20.092;2022-08-11T03:51:11;98428.85;;;13.09;66.94
37142;BME280;23041;49.816;20.092;2022-08-11T04:29:56;98417.47;;;15.24;67.14
37142;BME280;23041;49.816;20.092;2022-08-11T04:41:18;98411.41;;;15.55;66.84
37142;BME280;23041;49.816;20.092;2022-08-11T04:50:17;98420.38;;;15.76;66.58
37142;BME280;23041;49.816;20.092;2022-08-11T04:56:27;98429.41;;;15.84;66.34
37142;BME280;23041;49.816;20.092;2022-08-11T04:59:39;98427.72;;;15.87;66.27
37142;BME280;23041;49.816;20.092;2022-08-11T05:08:48;98436.84;;;15.92;66.09
37142;BME280;23041;49.816;20.092;2022-08-11T05:14:53;98434.65;;;16.04;65.88
37142;BME280;23041;49.816;20.092;2022-08-11T05:17:36;98437.02;;;16.10;65.74
37142;BME280;23041;49.816;20.092;2022-08-11T05:20:24;98443.12;;;16.22;65.64
37142;BME280;23041;49.816;20.092;2022-08-11T05:23:10;98448.95;;;16.37;65.57
37142;BME280;23041;49.816;20.092;2022-08-11T05:25:58;98444.39;;;16.43;65.51
37142;BME280;23041;49.816;20.092;2022-08-11T05:28:58;98447.36;;;16.49;65.49
37142;BME280;23041;49.816;20.092;2022-08-11T05:31:42;98449.36;;;16.65;65.46
37142;BME280;23041;49.816;20.092;2022-08-11T05:34:43;98459.19;;;16.84;65.31
37142;BME280;23041;49.816;20.092;2022-08-11T05:40:09;98451.52;;;17.14;65.05
37142;BME280;23041;49.816;20.092;2022-08-11T05:42:57;98457.27;;;17.29;64.93
37142;BME280;23041;49.816;20.092;2022-08-11T05:46:04;98455.49;;;17.39;64.76
37142;BME280;23041;49.816;20.092;2022-08-11T05:48:48;98460.45;;;17.44;64.48
37142;BME280;23041;49.816;20.092;2022-08-11T05:51:36;98463.16;;;17.62;64.34
37142;BME280;23041;49.816;20.092;2022-08-11T05:54:25;98463.45;;;17.64;64.22
37142;BME280;23041;49.816;20.092;2022-08-11T05:57:29;98463.71;;;17.87;64.02
37142;BME280;23041;49.816;20.092;2022-08-11T05:59:59;98462.49;;;18.07;63.79
37142;BME280;23041;49.816;20.092;2022-08-11T06:02:30;98466.98;;;18.18;63.51
37142;BME280;23041;49.816;20.092;2022-08-11T06:04:57;98472.25;;;18.29;63.25
37142;BME280;23041;49.816;20.092;2022-08-11T06:07:31;98468.42;;;18.41;63.04
37142;BME280;23041;49.816;20.092;2022-08-11T06:09:59;98473.80;;;18.53;62.87
37142;BME280;23041;49.816;20.092;2022-08-11T06:12:28;98467.98;;;18.65;62.68
37142;BME280;23041;49.816;20.092;2022-08-11T06:15:03;98473.21;;;18.72;62.48
37142;BME280;23041;49.816;20.092;2022-08-11T06:17:33;98469.81;;;18.86;62.26
37142;BME280;23041;49.816;20.092;2022-08-11T06:20:06;98473.16;;;19.08;62.10
37142;BME280;23041;49.816;20.092;2022-08-11T06:22:40;98467.73;;;19.23;61.84
37142;BME280;23041;49.816;20.092;2022-08-11T06:25:09;98468.73;;;19.44;61.54
37142;BME280;23041;49.816;20.092;2022-08-11T06:27:38;98469.98;;;20.09;61.30
37142;BME280;23041;49.816;20.092;2022-08-11T06:30:07;98475.22;;;22.16;61.22
37142;BME280;23041;49.816;20.092;2022-08-11T06:32:35;98471.04;;;24.77;61.01
37142;BME280;23041;49.816;20.092;2022-08-11T06:35:22;98481.92;;;27.34;59.80
37142;BME280;23041;49.816;20.092;2022-08-11T06:38:08;98475.91;;;29.45;57.71
37142;BME280;23041;49.816;20.092;2022-08-11T06:40:48;98473.48;;;31.54;54.58
37142;BME280;23041;49.816;20.092;2022-08-11T06:43:51;98470.86;;;33.35;51.33
37142;BME280;23041;49.816;20.092;2022-08-11T06:46:32;98469.14;;;34.94;47.73
37142;BME280;23041;49.816;20.092;2022-08-11T06:48:59;98479.45;;;36.12;44.61
37142;BME280;23041;49.816;20.092;2022-08-11T06:51:28;98476.91;;;37.28;41.91
37142;BME280;23041;49.816;20.092;2022-08-11T06:53:57;98473.41;;;38.11;39.29
37142;BME280;23041;49.816;20.092;2022-08-11T06:56:30;98471.95;;;38.97;37.23
37142;BME280;23041;49.816;20.092;2022-08-11T06:59:19;98468.36;;;39.77;35.28
37142;BME280;23041;49.816;20.092;2022-08-11T07:02:17;98464.59;;;40.59;33.29
37142;BME280;23041;49.816;20.092;2022-08-11T07:04:58;98466.28;;;41.51;31.61
37142;BME280;23041;49.816;20.092;2022-08-11T07:14:00;98461.37;;;42.72;27.34
37142;BME280;23041;49.816;20.092;2022-08-11T07:16:47;98459.78;;;43.87;25.95
37142;BME280;23041;49.816;20.092;2022-08-11T07:19:24;98452.70;;;44.45;24.72
37142;BME280;23041;49.816;20.092;2022-08-11T07:22:11;98458.60;;;45.05;23.90
37142;BME280;23041;49.816;20.092;2022-08-11T07:25:02;98455.06;;;45.53;22.93
37142;BME280;23041;49.816;20.092;2022-08-11T07:28:41;98459.04;;;45.76;21.99
37142;BME280;23041;49.816;20.092;2022-08-11T07:30:57;98460.41;;;46.57;21.37
37142;BME280;23041;49.816;20.092;2022-08-11T07:33:45;98459.51;;;47.05;20.49
37142;BME280;23041;49.816;20.092;2022-08-11T07:36:04;98463.16;;;47.42;19.94
37142;BME280;23041;49.816;20.092;2022-08-11T07:38:41;98463.85;;;48.20;19.21
37142;BME280;23041;49.816;20.092;2022-08-11T07:41:18;98459.89;;;49.19;18.48
37142;BME280;23041;49.816;20.092;2022-08-11T07:43:49;98459.02;;;49.62;17.43
37142;BME280;23041;49.816;20.092;2022-08-11T07:46:20;98458.95;;;49.36;16.88
37142;BME280;23041;49.816;20.092;2022-08-11T07:49:07;98461.30;;;49.42;16.38
37142;BME280;23041;49.816;20.092;2022-08-11T07:51:54;98458.65;;;50.00;16.16
37142;BME280;23041;49.816;20.092;2022-08-11T07:54:40;98455.58;;;50.48;15.60
37142;BME280;23041;49.816;20.092;2022-08-11T07:57:10;98458.91;;;50.93;15.26
37142;BME280;23041;49.816;20.092;2022-08-11T07:59:56;98446.20;;;51.13;14.79
37142;BME280;23041;49.816;20.092;2022-08-11T08:02:42;98452.05;;;51.13;14.18
37142;BME280;23041;49.816;20.092;2022-08-11T08:05:28;98454.97;;;51.13;14.06
37142;BME280;23041;49.816;20.092;2022-08-11T08:08:15;98459.74;;;51.63;13.95
37142;BME280;23041;49.816;20.092;2022-08-11T08:11:00;98451.98;;;52.13;13.66
37142;BME280;23041;49.816;20.092;2022-08-11T08:13:45;98452.27;;;52.71;13.42
37142;BME280;23041;49.816;20.092;2022-08-11T08:16:31;98451.02;;;51.00;12.96
37142;BME280;23041;49.816;20.092;2022-08-11T08:19:18;98445.09;;;48.89;13.24
37142;BME280;23041;49.816;20.092;2022-08-11T08:21:46;98447.38;;;49.15;13.75
37142;BME280;23041;49.816;20.092;2022-08-11T08:24:13;98443.81;;;48.09;13.96
37142;BME280;23041;49.816;20.092;2022-08-11T08:26:42;98437.61;;;49.54;13.94
37142;BME280;23041;49.816;20.092;2022-08-11T08:29:30;98435.75;;;49.90;13.62
37142;BME280;23041;49.816;20.092;2022-08-11T08:32:13;98433.02;;;49.45;13.65
37142;BME280;23041;49.816;20.092;2022-08-11T08:34:41;98434.38;;;48.96;13.67
37142;BME280;23041;49.816;20.092;2022-08-11T08:37:08;98434.38;;;48.96;13.67
37142;BME280;23041;49.816;20.092;2022-08-11T08:39:35;98433.11;;;50.55;13.21
37142;BME280;23041;49.816;20.092;2022-08-11T08:42:11;98436.04;;;51.48;12.75
37142;BME280;23041;49.816;20.092;2022-08-11T08:44:41;98436.20;;;50.62;12.54
37142;BME280;23041;49.816;20.092;2022-08-11T08:47:13;98432.38;;;50.84;12.51
37142;BME280;23041;49.816;20.092;2022-08-11T08:49:47;98430.94;;;51.85;12.22
37142;BME280;23041;49.816;20.092;2022-08-11T08:52:23;98425.65;;;53.02;11.86
37142;BME280;23041;49.816;20.092;2022-08-11T08:54:50;98420.14;;;53.84;11.45
37142;BME280;23041;49.816;20.092;2022-08-11T08:57:21;98425.95;;;54.50;11.15
37142;BME280;23041;49.816;20.092;2022-08-11T08:59:49;98422.52;;;51.67;10.96
37142;BME280;23041;49.816;20.092;2022-08-11T09:02:23;98416.41;;;50.58;11.42
37142;BME280;23041;49.816;20.092;2022-08-11T09:04:47;98408.80;;;51.76;11.34
37142;BME280;23041;49.816;20.092;2022-08-11T09:07:16;98408.61;;;51.66;11.17
37142;BME280;23041;49.816;20.092;2022-08-11T09:09:50;98404.94;;;52.88;11.17
37142;BME280;23041;49.816;20.092;2022-08-11T09:12:20;98403.13;;;49.98;11.02
37142;BME280;23041;49.816;20.092;2022-08-11T09:14:48;98395.09;;;45.73;11.71
37142;BME280;23041;49.816;20.092;2022-08-11T09:17:45;98396.02;;;42.78;12.83
37142;BME280;23041;49.816;20.092;2022-08-11T09:20:22;98393.80;;;40.76;14.02
37142;BME280;23041;49.816;20.092;2022-08-11T09:22:57;98387.71;;;39.74;15.13
37142;BME280;23041;49.816;20.092;2022-08-11T09:25:31;98385.60;;;42.47;15.51
37142;BME280;23041;49.816;20.092;2022-08-11T09:28:17;98388.41;;;45.85;14.88
37142;BME280;23041;49.816;20.092;2022-08-11T09:30:48;98386.55;;;48.81;13.90
37142;BME280;23041;49.816;20.092;2022-08-11T09:33:21;98386.77;;;50.72;13.02
37142;BME280;23041;49.816;20.092;2022-08-11T09:35:50;98380.49;;;52.28;12.24
37142;BME280;23041;49.816;20.092;2022-08-11T09:38:19;98384.23;;;53.27;11.21
37142;BME280;23041;49.816;20.092;2022-08-11T09:41:09;98380.13;;;54.19;10.53
37142;BME280;23041;49.816;20.092;2022-08-11T09:43:39;98374.28;;;54.21;9.91
37142;BME280;23041;49.816;20.092;2022-08-11T09:46:29;98380.30;;;54.39;9.66
37142;BME280;23041;49.816;20.092;2022-08-11T09:49:00;98370.13;;;53.75;9.47
37142;BME280;23041;49.816;20.092;2022-08-11T09:51:29;98368.75;;;54.67;9.35
37142;BME280;23041;49.816;20.092;2022-08-11T09:53:59;98367.57;;;55.06;9.17
37142;BME280;23041;49.816;20.092;2022-08-11T09:56:30;98373.74;;;55.88;9.04
37142;BME280;23041;49.816;20.092;2022-08-11T09:59:18;98367.89;;;56.25;8.84
37142;BME280;23041;49.816;20.092;2022-08-11T10:01:48;98366.38;;;56.75;8.59
37142;BME280;23041;49.816;20.092;2022-08-11T10:04:30;98367.81;;;57.00;8.47
37142;BME280;23041;49.816;20.092;2022-08-11T10:07:08;98356.62;;;57.34;8.12
37142;BME280;23041;49.816;20.092;2022-08-11T10:12:24;98356.38;;;54.83;7.91
37142;BME280;23041;49.816;20.092;2022-08-11T10:15:07;98348.83;;;51.77;8.51
37142;BME280;23041;49.816;20.092;2022-08-11T10:17:56;98348.17;;;51.10;9.25
37142;BME280;23041;49.816;20.092;2022-08-11T10:20:44;98337.58;;;51.26;9.51
37142;BME280;23041;49.816;20.092;2022-08-11T10:23:14;98333.57;;;51.81;9.39
37142;BME280;23041;49.816;20.092;2022-08-11T10:25:59;98325.80;;;53.45;8.98
37142;BME280;23041;49.816;20.092;2022-08-11T10:28:46;98325.81;;;54.23;8.35
37142;BME280;23041;49.816;20.092;2022-08-11T10:31:13;98322.77;;;55.22;8.02
37142;BME280;23041;49.816;20.092;2022-08-11T10:33:58;98319.83;;;55.27;7.90
37142;BME280;23041;49.816;20.092;2022-08-11T10:36:34;98323.70;;;56.09;7.87
37142;BME280;23041;49.816;20.092;2022-08-11T10:39:04;98313.77;;;52.69;8.22
37142;BME280;23041;49.816;20.092;2022-08-11T10:41:33;98306.38;;;51.03;8.95
37142;BME280;23041;49.816;20.092;2022-08-11T10:44:19;98302.42;;;48.93;9.42
37142;BME280;23041;49.816;20.092;2022-08-11T10:46:47;98292.98;;;46.82;10.20
37142;BME280;23041;49.816;20.092;2022-08-11T10:49:33;98292.82;;;48.65;10.46
37142;BME280;23041;49.816;20.092;2022-08-11T10:52:00;98294.98;;;49.64;10.25
37142;BME280;23041;49.816;20.092;2022-08-11T10:54:47;98296.67;;;49.45;10.28
37142;BME280;23041;49.816;20.092;2022-08-11T10:57:32;98284.28;;;50.94;9.95
37142;BME280;23041;49.816;20.092;2022-08-11T11:00:17;98279.76;;;51.61;9.66
37142;BME280;23041;49.816;20.092;2022-08-11T11:02:44;98281.28;;;51.26;9.47
37142;BME280;23041;49.816;20.092;2022-08-11T11:08:13;98275.71;;;49.53;9.40
37142;BME280;23041;49.816;20.092;2022-08-11T11:11:00;98266.19;;;46.11;10.09
37142;BME280;23041;49.816;20.092;2022-08-11T11:13:28;98260.75;;;43.12;11.10
37142;BME280;23041;49.816;20.092;2022-08-11T11:16:14;98267.16;;;41.46;12.08
37142;BME280;23041;49.816;20.092;2022-08-11T11:19:01;98268.05;;;40.33;12.95
37142;BME280;23041;49.816;20.092;2022-08-11T11:21:29;98267.72;;;39.42;13.75
37142;BME280;23041;49.816;20.092;2022-08-11T11:27:12;98254.89;;;37.73;14.65
37142;BME280;23041;49.816;20.092;2022-08-11T11:30:07;98257.11;;;36.72;15.58
37142;BME280;23041;49.816;20.092;2022-08-11T11:35:46;98262.81;;;35.41;17.18
37142;BME280;23041;49.816;20.092;2022-08-11T11:38:24;98261.75;;;35.45;18.06
37142;BME280;23041;49.816;20.092;2022-08-11T11:40:52;98265.50;;;34.97;18.45
37142;BME280;23041;49.816;20.092;2022-08-11T11:43:37;98265.03;;;34.67;18.85
37142;BME280;23041;49.816;20.092;2022-08-11T11:46:05;98261.69;;;34.86;19.55
37142;BME280;23041;49.816;20.092;2022-08-11T11:48:33;98260.23;;;34.61;19.87
37142;BME280;23041;49.816;20.092;2022-08-11T11:51:01;98254.80;;;34.48;20.26
37142;BME280;23041;49.816;20.092;2022-08-11T11:53:28;98255.95;;;34.28;20.66
37142;BME280;23041;49.816;20.092;2022-08-11T11:55:55;98260.23;;;34.28;20.82
37142;BME280;23041;49.816;20.092;2022-08-11T11:58:23;98254.05;;;34.07;20.91
37142;BME280;23041;49.816;20.092;2022-08-11T12:01:08;98252.98;;;33.87;21.15
37142;BME280;23041;49.816;20.092;2022-08-11T12:03:44;98245.73;;;33.62;21.47
37142;BME280;23041;49.816;20.092;2022-08-11T12:06:12;98238.88;;;33.42;21.51
37142;BME280;23041;49.816;20.092;2022-08-11T12:08:39;98232.70;;;33.44;21.79
37142;BME280;23041;49.816;20.092;2022-08-11T12:11:09;98230.27;;;33.26;22.01
37142;BME280;23041;49.816;20.092;2022-08-11T12:13:57;98231.96;;;33.13;22.30
37142;BME280;23041;49.816;20.092;2022-08-11T12:16:25;98236.27;;;32.83;22.53
37142;BME280;23041;49.816;20.092;2022-08-11T12:18:54;98233.64;;;32.48;22.69
37142;BME280;23041;49.816;20.092;2022-08-11T12:21:23;98240.02;;;32.18;23.08
37142;BME280;23041;49.816;20.092;2022-08-11T12:23:50;98239.56;;;31.77;23.41
37142;BME280;23041;49.816;20.092;2022-08-11T12:26:37;98242.36;;;31.55;23.73
37142;BME280;23041;49.816;20.092;2022-08-11T12:29:22;98242.95;;;31.40;24.12
37142;BME280;23041;49.816;20.092;2022-08-11T12:31:53;98239.63;;;31.56;24.21
37142;BME280;23041;49.816;20.092;2022-08-11T12:34:20;98236.48;;;31.53;24.38
37142;BME280;23041;49.816;20.092;2022-08-11T12:37:00;98231.91;;;31.14;24.47
37142;BME280;23041;49.816;20.092;2022-08-11T12:39:36;98236.41;;;31.24;24.93
37142;BME280;23041;49.816;20.092;2022-08-11T12:42:22;98229.11;;;31.36;25.23
37142;BME280;23041;49.816;20.092;2022-08-11T12:45:11;98226.27;;;31.36;25.02
37142;BME280;23041;49.816;20.092;2022-08-11T12:48:00;98235.08;;;31.68;24.85
37142;BME280;23041;49.816;20.092;2022-08-11T12:50:50;98245.25;;;31.35;24.63
37142;BME280;23041;49.816;20.092;2022-08-11T12:53:39;98244.30;;;29.88;24.90
37142;BME280;23041;49.816;20.092;2022-08-11T12:56:08;98250.39;;;29.00;25.46
37142;BME280;23041;49.816;20.092;2022-08-11T12:58:55;98243.38;;;28.74;25.95
37142;BME280;23041;49.816;20.092;2022-08-11T13:01:42;98256.73;;;28.42;26.48
37142;BME280;23041;49.816;20.092;2022-08-11T13:04:28;98265.35;;;28.12;26.84
37142;BME280;23041;49.816;20.092;2022-08-11T13:07:13;98273.56;;;27.36;27.17
37142;BME280;23041;49.816;20.092;2022-08-11T13:09:42;98287.08;;;26.71;27.60
37142;BME280;23041;49.816;20.092;2022-08-11T13:12:09;98289.14;;;26.35;28.53
37142;BME280;23041;49.816;20.092;2022-08-11T13:14:55;98291.23;;;26.00;30.01
37142;BME280;23041;49.816;20.092;2022-08-11T13:17:23;98288.47;;;25.55;30.79
37142;BME280;23041;49.816;20.092;2022-08-11T13:19:51;98289.97;;;25.05;31.27
37142;BME280;23041;49.816;20.092;2022-08-11T13:22:21;98283.45;;;24.53;31.79
37142;BME280;23041;49.816;20.092;2022-08-11T13:24:51;98279.88;;;24.42;32.41
37142;BME280;23041;49.816;20.092;2022-08-11T13:27:20;98281.02;;;24.45;32.84
37142;BME280;23041;49.816;20.092;2022-08-11T13:29:49;98281.55;;;24.60;33.30
37142;BME280;23041;49.816;20.092;2022-08-11T13:32:19;98284.98;;;24.88;33.54
37142;BME280;23041;49.816;20.092;2022-08-11T13:34:47;98282.93;;;25.16;33.56
37142;BME280;23041;49.816;20.092;2022-08-11T13:37:14;98285.05;;;25.39;33.64
37142;BME280;23041;49.816;20.092;2022-08-11T13:39:43;98286.28;;;25.66;33.57
37142;BME280;23041;49.816;20.092;2022-08-11T13:42:14;98280.97;;;25.85;33.54
37142;BME280;23041;49.816;20.092;2022-08-11T13:44:43;98283.72;;;25.96;33.37
37142;BME280;23041;49.816;20.092;2022-08-11T13:47:12;98277.84;;;26.18;33.09
37142;BME280;23041;49.816;20.092;2022-08-11T13:49:39;98265.81;;;26.17;32.74
37142;BME280;23041;49.816;20.092;2022-08-11T13:52:12;98274.21;;;26.28;32.67
37142;BME280;23041;49.816;20.092;2022-08-11T13:54:40;98262.05;;;26.32;32.50
37142;BME280;23041;49.816;20.092;2022-08-11T13:57:08;98260.77;;;26.33;32.49
37142;BME280;23041;49.816;20.092;2022-08-11T13:59:38;98259.28;;;26.45;32.44
37142;BME280;23041;49.816;20.092;2022-08-11T14:02:07;98255.17;;;26.63;32.22
37142;BME280;23041;49.816;20.092;2022-08-11T14:07:30;98247.98;;;26.80;32.09
37142;BME280;23041;49.816;20.092;2022-08-11T14:09:57;98246.45;;;26.79;32.12
37142;BME280;23041;49.816;20.092;2022-08-11T14:12:27;98245.51;;;26.83;32.10
37142;BME280;23041;49.816;20.092;2022-08-11T14:15:15;98244.92;;;26.78;32.01
37142;BME280;23041;49.816;20.092;2022-08-11T14:17:49;98245.78;;;26.67;31.76
37142;BME280;23041;49.816;20.092;2022-08-11T14:20:24;98248.11;;;26.51;31.83
37142;BME280;23041;49.816;20.092;2022-08-11T14:22:52;98247.98;;;26.32;31.91
37142;BME280;23041;49.816;20.092;2022-08-11T14:25:21;98252.77;;;26.20;32.03
37142;BME280;23041;49.816;20.092;2022-08-11T14:27:47;98258.44;;;26.37;32.14
37142;BME280;23041;49.816;20.092;2022-08-11T14:30:15;98254.94;;;26.44;32.14
37142;BME280;23041;49.816;20.092;2022-08-11T14:33:00;98255.44;;;26.60;32.23
37142;BME280;23041;49.816;20.092;2022-08-11T14:35:27;98256.55;;;26.81;32.45
37142;BME280;23041;49.816;20.092;2022-08-11T14:37:55;98256.37;;;27.03;32.63
37142;BME280;23041;49.816;20.092;2022-08-11T14:40:23;98260.48;;;27.14;32.52
37142;BME280;23041;49.816;20.092;2022-08-11T14:43:09;98261.18;;;27.45;32.61
37142;BME280;23041;49.816;20.092;2022-08-11T14:45:54;98253.21;;;27.80;32.74
37142;BME280;23041;49.816;20.092;2022-08-11T14:48:40;98246.23;;;27.74;32.64
37142;BME280;23041;49.816;20.092;2022-08-11T14:51:07;98244.08;;;27.49;32.49
37142;BME280;23041;49.816;20.092;2022-08-11T14:53:34;98243.75;;;27.10;32.49
37142;BME280;23041;49.816;20.092;2022-08-11T14:56:01;98242.05;;;26.54;32.48
37142;BME280;23041;49.816;20.092;2022-08-11T14:58:45;98245.08;;;26.03;32.56
37142;BME280;23041;49.816;20.092;2022-08-11T15:01:11;98249.45;;;25.69;32.91
37142;BME280;23041;49.816;20.092;2022-08-11T15:03:56;98242.98;;;25.51;33.11
37142;BME280;23041;49.816;20.092;2022-08-11T15:06:25;98236.88;;;25.47;33.43
37142;BME280;23041;49.816;20.092;2022-08-11T15:08:53;98232.83;;;25.37;33.59
37142;BME280;23041;49.816;20.092;2022-08-11T15:11:22;98221.48;;;25.30;33.78
37142;BME280;23041;49.816;20.092;2022-08-11T15:14:10;98220.72;;;25.30;34.05
37142;BME280;23041;49.816;20.092;2022-08-11T15:16:40;98223.30;;;25.16;34.32
37142;BME280;23041;49.816;20.092;2022-08-11T15:19:29;98213.36;;;25.10;34.42
37142;BME280;23041;49.816;20.092;2022-08-11T15:21:56;98219.77;;;25.05;34.58
37142;BME280;23041;49.816;20.092;2022-08-11T15:24:41;98218.09;;;25.03;34.89
37142;BME280;23041;49.816;20.092;2022-08-11T15:27:16;98222.88;;;24.90;34.91
37142;BME280;23041;49.816;20.092;2022-08-11T15:30:04;98227.70;;;24.84;35.05
37142;BME280;23041;49.816;20.092;2022-08-11T15:32:52;98239.19;;;24.69;35.31
37142;BME280;23041;49.816;20.092;2022-08-11T15:35:37;98239.56;;;24.61;35.48
37142;BME280;23041;49.816;20.092;2022-08-11T15:38:23;98241.37;;;24.53;35.60
37142;BME280;23041;49.816;20.092;2022-08-11T15:40:53;98236.26;;;24.46;35.74
37142;BME280;23041;49.816;20.092;2022-08-11T15:43:47;98232.05;;;24.40;36.00
37142;BME280;23041;49.816;20.092;2022-08-11T15:46:31;98232.81;;;24.41;36.28
37142;BME280;23041;49.816;20.092;2022-08-11T15:49:21;98228.21;;;24.38;36.59
37142;BME280;23041;49.816;20.092;2022-08-11T15:54:34;98230.52;;;24.28;36.70
37142;BME280;23041;49.816;20.092;2022-08-11T15:57:07;98234.35;;;24.31;36.77
37142;BME280;23041;49.816;20.092;2022-08-11T15:59:38;98234.45;;;24.32;36.85
37142;BME280;23041;49.816;20.092;2022-08-11T16:02:24;98232.69;;;24.34;36.85
37142;BME280;23041;49.816;20.092;2022-08-11T16:05:12;98231.28;;;24.40;36.95
37142;BME280;23041;49.816;20.092;2022-08-11T16:07:43;98229.52;;;24.43;36.96
37142;BME280;23041;49.816;20.092;2022-08-11T16:10:15;98227.34;;;24.53;37.00
37142;BME280;23041;49.816;20.092;2022-08-11T16:13:02;98227.33;;;24.64;37.03
37142;BME280;23041;49.816;20.092;2022-08-11T16:15:32;98223.39;;;24.61;36.93
37142;BME280;23041;49.816;20.092;2022-08-11T16:18:21;98210.50;;;24.53;36.91
37142;BME280;23041;49.816;20.092;2022-08-11T16:20:53;98207.57;;;24.30;36.80
37142;BME280;23041;49.816;20.092;2022-08-11T16:23:22;98199.35;;;24.10;36.82
37142;BME280;23041;49.816;20.092;2022-08-11T16:25:53;98199.33;;;23.87;36.87
37142;BME280;23041;49.816;20.092;2022-08-11T16:28:22;98208.81;;;23.63;36.83
37142;BME280;23041;49.816;20.092;2022-08-11T16:30:50;98207.59;;;23.48;36.86
37142;BME280;23041;49.816;20.092;2022-08-11T16:33:19;98210.09;;;23.35;36.95
37142;BME280;23041;49.816;20.092;2022-08-11T16:35:48;98212.81;;;23.24;37.06
37142;BME280;23041;49.816;20.092;2022-08-11T16:38:35;98213.53;;;23.13;37.12
37142;BME280;23041;49.816;20.092;2022-08-11T16:41:11;98219.39;;;22.94;37.17
37142;BME280;23041;49.816;20.092;2022-08-11T16:43:46;98217.78;;;22.82;37.32
37142;BME280;23041;49.816;20.092;2022-08-11T16:46:33;98218.20;;;22.69;37.49
37142;BME280;23041;49.816;20.092;2022-08-11T16:49:30;98212.78;;;22.60;37.65
37142;BME280;23041;49.816;20.092;2022-08-11T16:51:59;98212.42;;;22.47;37.90
37142;BME280;23041;49.816;20.092;2022-08-11T16:54:31;98216.67;;;22.37;38.09
37142;BME280;23041;49.816;20.092;2022-08-11T16:57:02;98217.63;;;22.28;38.33
37142;BME280;23041;49.816;20.092;2022-08-11T16:59:49;98219.23;;;22.25;38.66
37142;BME280;23041;49.816;20.092;2022-08-11T17:02:18;98218.78;;;22.16;38.96